Arlington, Maryland
Current Conditions -  °F | °C
As of 3:54 AM on Friday 31 Oct 2014 (Local Time) from KBWI Reporting Station
Broken Clouds Broken Clouds  
Wind Chill:   Ceiling: 5500
Heat Index:   Visibility: 10mi
Dew Point:   Wind: 5mph
Humidity: 74%   Direction: 60°ENE
Pressure: 30.01"   Gusts: NA
Location:  39.3453°N, 76.6832°W
Report Text: KBWI 310754Z 06004KT 10SM BKN055 09/04 A3001 RMK AO2 SLP163 T00890044
Loading
Personal Weather Stations






























Interactive Weather Map
Tropical Storm Tracking
New forecast layout! Learn more

10-Day Weather Forecast

Advertisements
Track Severe Weather on mobile